createdAt,value
2023-03-13T00:00:16.545Z,4.89
2023-03-13T00:03:12.205Z,5.01
2023-03-13T00:06:20.595Z,5.12
2023-03-13T00:09:17.605Z,5.20
2023-03-13T00:12:01.370Z,5.25
2023-03-13T00:14:55.084Z,5.27
2023-03-13T00:18:04.135Z,5.30
2023-03-13T00:20:41.103Z,5.32
2023-03-13T00:24:21.074Z,5.34
2023-03-13T00:27:29.678Z,5.37
2023-03-13T00:31:19.075Z,5.46
2023-03-13T00:34:27.897Z,5.60
2023-03-13T00:37:52.298Z,5.68
2023-03-13T00:40:51.649Z,5.74
2023-03-13T00:43:51.316Z,5.74
2023-03-13T00:47:06.129Z,5.72
2023-03-13T00:50:20.844Z,5.76
2023-03-13T00:53:09.041Z,5.80
2023-03-13T00:55:37.575Z,5.82
2023-03-13T00:58:28.110Z,5.85
2023-03-13T01:01:29.499Z,5.86
2023-03-13T01:04:16.064Z,5.84
2023-03-13T01:06:47.801Z,5.84
2023-03-13T01:09:36.800Z,5.83
2023-03-13T01:12:28.074Z,5.79
2023-03-13T01:15:24.188Z,5.78
2023-03-13T01:17:55.252Z,5.75
2023-03-13T01:20:26.038Z,5.73
2023-03-13T01:23:16.177Z,5.71
2023-03-13T01:25:46.803Z,5.69
2023-03-13T01:28:15.281Z,5.66
2023-03-13T01:31:14.484Z,5.65
2023-03-13T01:33:51.127Z,5.65
2023-03-13T01:36:23.607Z,5.65
2023-03-13T01:39:41.340Z,5.63
2023-03-13T01:42:22.151Z,5.61
2023-03-13T01:45:22.836Z,5.61
2023-03-13T01:48:11.585Z,5.61
2023-03-13T01:51:38.587Z,5.59
2023-03-13T01:55:05.409Z,5.56
2023-03-13T01:57:54.970Z,5.51
2023-03-13T02:01:06.687Z,5.49
2023-03-13T02:04:48.150Z,5.47
2023-03-13T02:08:05.098Z,5.46
2023-03-13T02:10:39.819Z,5.43
2023-03-13T02:13:47.232Z,5.41
2023-03-13T02:16:36.620Z,5.42
2023-03-13T02:19:35.833Z,5.42
2023-03-13T02:22:50.631Z,5.41
2023-03-13T02:25:27.580Z,5.41
2023-03-13T02:28:07.976Z,5.41
2023-03-13T02:30:55.920Z,5.40
2023-03-13T02:33:35.463Z,5.40
2023-03-13T02:36:09.443Z,5.44
2023-03-13T02:39:06.190Z,5.48
2023-03-13T02:41:54.770Z,5.52
2023-03-13T02:44:53.685Z,5.52
2023-03-13T02:47:24.776Z,5.52
2023-03-13T02:50:14.292Z,5.52
2023-03-13T02:53:08.127Z,5.54
2023-03-13T02:55:41.237Z,5.54
2023-03-13T02:58:15.645Z,5.56
2023-03-13T03:01:08.016Z,5.59
2023-03-13T03:04:01.008Z,5.61
2023-03-13T03:06:39.175Z,5.61
2023-03-13T03:09:12.900Z,5.60
2023-03-13T03:11:47.434Z,5.57
2023-03-13T03:14:40.584Z,5.54
2023-03-13T03:17:08.772Z,5.50
2023-03-13T03:19:44.782Z,5.49
2023-03-13T03:22:18.338Z,5.50
2023-03-13T03:25:00.757Z,5.54
2023-03-13T03:27:46.162Z,5.59
2023-03-13T03:30:37.540Z,5.67
2023-03-13T03:33:26.004Z,5.75
2023-03-13T03:36:02.813Z,5.80
2023-03-13T03:38:54.149Z,5.83
2023-03-13T03:41:29.237Z,5.87
2023-03-13T03:44:17.942Z,5.91
2023-03-13T03:47:19.612Z,5.97
2023-03-13T03:50:38.669Z,6.01
2023-03-13T03:53:32.835Z,6.06
2023-03-13T03:56:05.576Z,6.08
2023-03-13T03:59:38.580Z,6.11
2023-03-13T04:02:24.101Z,6.13
2023-03-13T04:05:34.249Z,6.12
2023-03-13T04:08:24.552Z,6.10
2023-03-13T04:11:16.172Z,6.08
2023-03-13T04:14:12.536Z,6.06
2023-03-13T04:17:04.274Z,6.05
2023-03-13T04:20:12.098Z,6.02
2023-03-13T04:23:37.439Z,5.98
2023-03-13T04:26:29.103Z,5.96
2023-03-13T04:29:43.246Z,5.92
2023-03-13T04:33:17.328Z,5.87
2023-03-13T04:36:15.283Z,5.83
2023-03-13T04:39:22.161Z,5.79
2023-03-13T04:42:27.421Z,5.72
2023-03-13T04:45:47.798Z,5.67
2023-03-13T04:49:16.944Z,5.63
2023-03-13T04:52:13.231Z,5.59
2023-03-13T04:55:33.915Z,5.57
2023-03-13T04:58:56.074Z,5.54
2023-03-13T05:02:10.644Z,5.54
2023-03-13T05:05:11.062Z,5.52
2023-03-13T05:08:01.335Z,5.51
2023-03-13T05:11:07.031Z,5.50
2023-03-13T05:14:40.482Z,5.49
2023-03-13T05:17:37.964Z,5.48
2023-03-13T05:20:28.731Z,5.46
2023-03-13T05:23:44.991Z,5.43
2023-03-13T05:26:32.415Z,5.41
2023-03-13T05:29:51.423Z,5.40
2023-03-13T05:32:42.009Z,5.40
2023-03-13T05:35:59.572Z,5.39
2023-03-13T05:38:54.407Z,5.39
2023-03-13T05:41:46.120Z,5.39
2023-03-13T05:44:49.417Z,5.41
2023-03-13T05:47:41.749Z,5.44
2023-03-13T05:50:42.364Z,5.47
2023-03-13T05:53:52.751Z,5.52
2023-03-13T05:57:27.461Z,5.57
2023-03-13T06:01:14.141Z,5.64
2023-03-13T06:03:51.749Z,5.70
2023-03-13T06:06:49.553Z,5.74
2023-03-13T06:09:48.877Z,5.79
2023-03-13T06:12:17.246Z,5.84
2023-03-13T06:15:12.059Z,5.91
2023-03-13T06:18:37.103Z,6.02
2023-03-13T06:21:13.630Z,6.10
2023-03-13T06:23:45.009Z,6.19
2023-03-13T06:26:13.728Z,6.25
2023-03-13T06:28:47.406Z,6.32
2023-03-13T06:31:16.035Z,6.35
2023-03-13T06:33:50.741Z,6.41
2023-03-13T06:36:58.960Z,6.46
2023-03-13T06:40:26.900Z,6.56
2023-03-13T06:56:22.364Z,7.45
2023-03-13T06:59:19.005Z,7.50
2023-03-13T07:02:17.256Z,7.55
2023-03-13T07:05:05.878Z,7.55
2023-03-13T07:07:34.135Z,7.56
2023-03-13T07:10:53.906Z,7.56
2023-03-13T07:14:22.748Z,7.55
2023-03-13T07:17:42.085Z,7.52
2023-03-13T07:21:03.721Z,7.52
2023-03-13T07:23:43.493Z,7.54
2023-03-13T07:27:22.587Z,7.58
2023-03-13T07:29:56.681Z,7.66
2023-03-13T07:33:09.263Z,7.78
2023-03-13T07:36:36.657Z,7.96
2023-03-13T07:39:45.239Z,8.15
2023-03-13T07:43:25.159Z,8.32
2023-03-13T07:46:50.151Z,8.43
2023-03-13T07:50:31.685Z,8.50
2023-03-13T07:53:51.837Z,8.52
2023-03-13T07:57:17.040Z,8.56
2023-03-13T08:00:37.895Z,8.69
2023-03-13T08:04:26.661Z,8.82
2023-03-13T08:08:03.695Z,8.85
2023-03-13T08:11:46.568Z,8.89
2023-03-13T08:15:32.733Z,8.98
2023-03-13T08:18:45.650Z,9.05
2023-03-13T08:22:07.711Z,9.08
2023-03-13T08:25:45.859Z,9.14
2023-03-13T08:29:34.969Z,9.23
2023-03-13T08:33:07.452Z,9.25
2023-03-13T08:36:59.957Z,9.23
2023-03-13T08:47:24.263Z,9.39
2023-03-13T08:50:06.522Z,9.58
2023-03-13T08:53:04.046Z,9.75
2023-03-13T08:56:42.098Z,9.91
2023-03-13T08:59:51.700Z,10.07
2023-03-13T09:02:53.875Z,10.22
2023-03-13T09:06:13.053Z,10.39
2023-03-13T09:09:33.336Z,10.55
2023-03-13T09:12:31.608Z,10.74
2023-03-13T09:15:20.897Z,10.81
2023-03-13T09:18:12.689Z,10.84
2023-03-13T09:21:44.610Z,10.89
2023-03-13T09:25:22.149Z,11.07
2023-03-13T09:27:59.128Z,11.33
2023-03-13T09:30:42.552Z,11.50
2023-03-13T09:33:53.714Z,11.72
2023-03-13T09:37:11.679Z,11.87
2023-03-13T09:40:40.809Z,12.00
2023-03-13T09:43:52.449Z,12.10
2023-03-13T09:46:37.681Z,12.07
2023-03-13T09:49:26.685Z,12.09
2023-03-13T09:52:41.073Z,12.24
2023-03-13T09:59:24.530Z,12.57
2023-03-13T10:03:08.040Z,12.62
2023-03-13T10:06:10.503Z,12.57
2023-03-13T10:09:43.206Z,12.40
2023-03-13T10:13:00.214Z,12.21
2023-03-13T10:16:43.897Z,12.25
2023-03-13T10:33:54.284Z,12.88
2023-03-13T10:39:38.411Z,12.67
2023-03-13T10:42:30.242Z,12.53
2023-03-13T10:52:41.536Z,13.24
2023-03-13T10:56:09.479Z,13.43
2023-03-13T10:59:22.157Z,13.55
2023-03-13T11:03:19.603Z,13.91
2023-03-13T11:07:27.585Z,14.43
2023-03-13T11:11:01.772Z,14.75
2023-03-13T11:14:43.014Z,14.73
2023-03-13T11:18:02.485Z,14.53
2023-03-13T11:21:17.582Z,14.28
2023-03-13T11:24:26.371Z,13.78
2023-03-13T11:27:52.527Z,13.36
2023-03-13T11:30:35.978Z,13.04
2023-03-13T11:33:58.791Z,12.96
2023-03-13T11:37:19.642Z,13.03
2023-03-13T11:40:15.767Z,13.10
2023-03-13T11:43:24.159Z,13.24
2023-03-13T11:46:59.861Z,13.33
2023-03-13T11:50:53.890Z,13.46
2023-03-13T11:54:45.249Z,13.45
2023-03-13T11:58:16.828Z,13.62
2023-03-13T12:05:38.742Z,14.55
2023-03-13T12:09:29.594Z,14.80
2023-03-13T12:13:32.655Z,14.84
2023-03-13T12:17:00.540Z,14.63
2023-03-13T12:41:29.157Z,13.51
2023-03-13T12:45:11.148Z,13.25
2023-03-13T12:49:22.569Z,12.80
2023-03-13T13:04:42.231Z,11.33
2023-03-13T13:07:45.971Z,11.02
2023-03-13T13:10:29.821Z,10.75
2023-03-13T13:13:49.838Z,10.53
2023-03-13T13:17:05.535Z,10.37
2023-03-13T13:20:45.137Z,10.27
2023-03-13T13:24:12.968Z,10.21
2023-03-13T13:27:42.074Z,10.15
2023-03-13T13:31:30.064Z,10.14
2023-03-13T13:34:44.969Z,10.20
2023-03-13T13:38:02.870Z,10.25
2023-03-13T13:42:10.251Z,10.34
2023-03-13T13:45:08.935Z,10.45
2023-03-13T13:48:39.183Z,10.50
2023-03-13T13:52:43.832Z,10.53
2023-03-13T13:56:20.855Z,10.57
2023-03-13T13:59:53.256Z,10.60
2023-03-13T14:03:09.741Z,10.65
2023-03-13T14:06:35.941Z,10.71
2023-03-13T14:09:45.987Z,10.73
2023-03-13T14:32:23.062Z,10.84
2023-03-13T14:35:42.809Z,10.82
2023-03-13T14:38:54.693Z,10.82
2023-03-13T14:42:33.811Z,10.80
2023-03-13T14:45:59.663Z,10.76
2023-03-13T14:49:13.860Z,10.75
2023-03-13T14:52:06.308Z,10.74
2023-03-13T14:54:48.349Z,10.70
2023-03-13T14:57:27.101Z,10.69
2023-03-13T15:00:58.615Z,10.67
2023-03-13T15:04:24.978Z,10.65
2023-03-13T15:07:56.481Z,10.64
2023-03-13T15:11:24.978Z,10.66
2023-03-13T15:14:36.238Z,10.69
2023-03-13T15:17:46.084Z,10.71
2023-03-13T15:20:51.847Z,10.74
2023-03-13T15:23:50.698Z,10.74
2023-03-13T15:27:02.532Z,10.75
2023-03-13T15:30:46.332Z,10.72
2023-03-13T15:34:35.426Z,10.66
2023-03-13T15:38:21.052Z,10.66
2023-03-13T15:49:36.033Z,10.68
2023-03-13T15:52:50.176Z,10.69
2023-03-13T15:56:02.267Z,10.70
2023-03-13T15:59:51.385Z,10.71
2023-03-13T16:03:33.377Z,10.70
2023-03-13T16:06:42.291Z,10.71
2023-03-13T16:10:14.600Z,10.75
2023-03-13T16:13:15.712Z,10.80
2023-03-13T16:16:55.887Z,10.82
2023-03-13T16:20:30.100Z,10.89
2023-03-13T16:24:05.258Z,10.97
2023-03-13T16:27:41.980Z,11.02
2023-03-13T17:03:46.520Z,11.25
2023-03-13T17:07:34.562Z,11.30
2023-03-13T17:11:22.892Z,11.30
2023-03-13T17:15:12.163Z,11.28
2023-03-13T17:18:46.488Z,11.27
2023-03-13T17:21:57.797Z,11.24
2023-03-13T17:25:43.953Z,11.20
2023-03-13T17:29:35.167Z,11.21
2023-03-13T17:33:22.215Z,11.23
2023-03-13T17:52:43.523Z,11.78
2023-03-13T17:56:32.722Z,11.84
2023-03-13T18:00:22.336Z,11.87
2023-03-13T18:04:11.291Z,11.84
2023-03-13T18:08:03.955Z,11.83
2023-03-13T18:19:58.128Z,11.92
2023-03-13T18:23:40.550Z,11.99
2023-03-13T18:27:32.636Z,12.10
2023-03-13T18:31:04.558Z,12.15
2023-03-13T18:34:13.237Z,12.18
2023-03-13T18:38:07.067Z,12.15
2023-03-13T18:41:57.633Z,12.12
2023-03-13T18:45:44.747Z,12.18
2023-03-13T18:49:33.564Z,12.21
2023-03-13T18:53:13.780Z,12.21
2023-03-13T18:57:07.571Z,12.24
2023-03-13T19:08:13.928Z,12.24
2023-03-13T19:12:11.332Z,12.24
2023-03-13T19:37:42.126Z,12.02
2023-03-13T19:41:13.381Z,11.99
2023-03-13T19:45:02.586Z,11.95
2023-03-13T19:48:50.431Z,11.96
2023-03-13T19:52:39.652Z,12.00
2023-03-13T19:56:28.844Z,12.01
2023-03-13T19:59:35.667Z,12.01
2023-03-13T20:02:24.379Z,12.02
2023-03-13T20:05:12.825Z,12.04
2023-03-13T20:08:04.545Z,12.00
2023-03-13T20:11:05.727Z,11.96
2023-03-13T20:14:17.796Z,11.94
2023-03-13T20:24:29.001Z,11.97
2023-03-13T20:35:26.013Z,11.99
2023-03-13T20:38:39.749Z,11.95
2023-03-13T20:42:15.066Z,11.92
2023-03-13T20:44:56.297Z,11.95
2023-03-13T20:48:26.116Z,11.96
2023-03-13T20:52:07.855Z,11.97
2023-03-13T20:55:56.782Z,11.95
2023-03-13T20:59:47.038Z,11.94
2023-03-13T21:03:36.245Z,11.95
2023-03-13T21:07:03.550Z,11.97
2023-03-13T21:10:51.570Z,12.03
2023-03-13T21:14:40.517Z,12.07
2023-03-13T21:18:29.691Z,12.10
2023-03-13T21:22:18.582Z,12.12
2023-03-13T21:26:07.644Z,12.16
2023-03-13T21:29:55.489Z,12.25
2023-03-13T21:33:44.030Z,12.33
2023-03-13T21:37:32.906Z,12.35
2023-03-13T21:41:22.089Z,12.40
2023-03-13T21:44:18.436Z,12.42
2023-03-13T21:47:07.416Z,12.40
2023-03-13T21:50:16.130Z,12.39
2023-03-13T21:53:54.090Z,12.42
2023-03-13T22:01:15.422Z,12.42
2023-03-13T22:30:59.478Z,12.38
2023-03-13T22:34:48.467Z,12.38
2023-03-13T22:38:37.800Z,12.41
2023-03-13T22:42:26.671Z,12.50
2023-03-13T22:46:15.428Z,12.55
2023-03-13T22:50:04.292Z,12.65
2023-03-13T22:53:53.617Z,12.69
2023-03-13T22:57:42.602Z,12.70
2023-03-13T23:01:31.802Z,12.73
2023-03-13T23:04:20.441Z,12.79
2023-03-13T23:07:49.499Z,12.82
2023-03-13T23:11:41.180Z,12.84
2023-03-13T23:15:43.056Z,12.85
2023-03-13T23:46:15.346Z,12.87
2023-03-13T23:50:04.268Z,12.92
2023-03-13T23:53:53.656Z,12.93
2023-03-13T23:57:42.609Z,12.87
